sensor_id;sensor_type;location;lat;lon;timestamp;pressure;altitude;pressure_sealevel;temperature;humidity
62600;BME280;48671;48.922;2.346;2023-02-15T00:02:31;102540.25;;;9.74;56.40
62600;BME280;48671;48.922;2.346;2023-02-15T00:05:01;102526.47;;;9.61;56.38
62600;BME280;48671;48.922;2.346;2023-02-15T00:07:41;102508.34;;;9.53;56.63
62600;BME280;48671;48.922;2.346;2023-02-15T00:10:07;102531.66;;;9.64;56.63
62600;BME280;48671;48.922;2.346;2023-02-15T00:12:48;102499.72;;;9.47;56.71
62600;BME280;48671;48.922;2.346;2023-02-15T00:15:35;102521.28;;;9.58;56.59
62600;BME280;48671;48.922;2.346;2023-02-15T00:21:28;102505.72;;;9.53;56.91
62600;BME280;48671;48.922;2.346;2023-02-15T00:24:16;102482.41;;;9.43;57.10
62600;BME280;48671;48.922;2.346;2023-02-15T00:30:31;102473.78;;;9.37;57.01
62600;BME280;48671;48.922;2.346;2023-02-15T00:33:21;102498.00;;;9.43;57.08
62600;BME280;48671;48.922;2.346;2023-02-15T00:40:04;102499.75;;;9.37;57.21
62600;BME280;48671;48.922;2.346;2023-02-15T00:46:30;102500.66;;;9.32;57.39
62600;BME280;48671;48.922;2.346;2023-02-15T00:55:42;102486.03;;;9.14;57.59
62600;BME280;48671;48.922;2.346;2023-02-15T01:01:42;102503.34;;;9.13;57.83
62600;BME280;48671;48.922;2.346;2023-02-15T01:04:11;102465.38;;;8.86;58.02
62600;BME280;48671;48.922;2.346;2023-02-15T01:07:01;102460.19;;;8.80;57.96
62600;BME280;48671;48.922;2.346;2023-02-15T01:16:24;102474.91;;;8.81;58.21
62600;BME280;48671;48.922;2.346;2023-02-15T01:19:00;102468.88;;;8.73;58.25
62600;BME280;48671;48.922;2.346;2023-02-15T01:21:31;102461.09;;;8.62;58.26
62600;BME280;48671;48.922;2.346;2023-02-15T01:24:00;102466.31;;;8.58;58.18
62600;BME280;48671;48.922;2.346;2023-02-15T01:26:26;102475.81;;;8.56;58.35
62600;BME280;48671;48.922;2.346;2023-02-15T01:28:54;102468.94;;;8.44;58.73
62600;BME280;48671;48.922;2.346;2023-02-15T01:31:20;102449.88;;;8.33;58.48
62600;BME280;48671;48.922;2.346;2023-02-15T01:33:47;102472.41;;;8.48;58.73
62600;BME280;48671;48.922;2.346;2023-02-15T01:36:14;102444.72;;;8.30;58.69
62600;BME280;48671;48.922;2.346;2023-02-15T01:38:57;102464.59;;;8.35;58.66
62600;BME280;48671;48.922;2.346;2023-02-15T01:41:22;102451.66;;;8.25;59.17
62600;BME280;48671;48.922;2.346;2023-02-15T01:43:57;102461.13;;;8.27;58.78
62600;BME280;48671;48.922;2.346;2023-02-15T01:46:36;102453.38;;;8.16;59.02
62600;BME280;48671;48.922;2.346;2023-02-15T01:49:10;102470.63;;;8.27;59.06
62600;BME280;48671;48.922;2.346;2023-02-15T01:51:37;102487.94;;;8.32;58.85
62600;BME280;48671;48.922;2.346;2023-02-15T01:54:18;102481.88;;;8.26;58.79
62600;BME280;48671;48.922;2.346;2023-02-15T01:56:46;102467.19;;;8.11;59.00
62600;BME280;48671;48.922;2.346;2023-02-15T01:59:17;102470.66;;;8.11;58.64
62600;BME280;48671;48.922;2.346;2023-02-15T02:01:44;102486.22;;;8.22;59.09
62600;BME280;48671;48.922;2.346;2023-02-15T02:04:29;102479.28;;;8.23;59.31
62600;BME280;48671;48.922;2.346;2023-02-15T02:06:57;102456.84;;;8.12;59.36
62600;BME280;48671;48.922;2.346;2023-02-15T02:09:23;102452.53;;;8.11;59.15
62600;BME280;48671;48.922;2.346;2023-02-15T02:11:49;102451.66;;;8.15;58.97
62600;BME280;48671;48.922;2.346;2023-02-15T02:14:16;102473.22;;;8.24;58.81
62600;BME280;48671;48.922;2.346;2023-02-15T02:30:57;102462.03;;;7.92;59.15
62600;BME280;48671;48.922;2.346;2023-02-15T02:42:01;102453.38;;;7.89;59.97
62600;BME280;48671;48.922;2.346;2023-02-15T02:47:28;102453.38;;;7.84;59.54
62600;BME280;48671;48.922;2.346;2023-02-15T02:50:06;102438.69;;;7.66;60.07
62600;BME280;48671;48.922;2.346;2023-02-15T02:52:43;102450.78;;;7.69;59.97
62600;BME280;48671;48.922;2.346;2023-02-15T02:55:11;102440.41;;;7.66;59.62
62600;BME280;48671;48.922;2.346;2023-02-15T02:57:46;102412.75;;;7.46;60.30
62600;BME280;48671;48.922;2.346;2023-02-15T03:00:17;102436.94;;;7.58;60.03
62600;BME280;48671;48.922;2.346;2023-02-15T03:02:45;102446.44;;;7.62;59.74
62600;BME280;48671;48.922;2.346;2023-02-15T03:05:16;102426.56;;;7.48;59.44
62600;BME280;48671;48.922;2.346;2023-02-15T03:07:46;102429.13;;;7.32;59.95
62600;BME280;48671;48.922;2.346;2023-02-15T03:10:15;102441.25;;;7.36;59.84
62600;BME280;48671;48.922;2.346;2023-02-15T03:12:45;102439.47;;;7.27;60.08
62600;BME280;48671;48.922;2.346;2023-02-15T03:15:21;102417.00;;;7.14;60.61
62600;BME280;48671;48.922;2.346;2023-02-15T03:22:08;102437.69;;;7.09;60.13
62600;BME280;48671;48.922;2.346;2023-02-15T03:25:12;102426.44;;;6.98;60.59
62600;BME280;48671;48.922;2.346;2023-02-15T03:28:06;102436.81;;;7.06;60.76
62600;BME280;48671;48.922;2.346;2023-02-15T03:30:54;102433.38;;;7.03;60.66
62600;BME280;48671;48.922;2.346;2023-02-15T03:34:02;102411.75;;;6.92;60.63
62600;BME280;48671;48.922;2.346;2023-02-15T03:37:00;102441.97;;;6.99;60.64
62600;BME280;48671;48.922;2.346;2023-02-15T03:47:03;102428.13;;;6.84;61.14
62600;BME280;48671;48.922;2.346;2023-02-15T03:53:47;102437.59;;;6.83;60.95
62600;BME280;48671;48.922;2.346;2023-02-15T04:03:49;102404.75;;;6.65;61.01
62600;BME280;48671;48.922;2.346;2023-02-15T04:06:28;102426.34;;;6.72;61.22
62600;BME280;48671;48.922;2.346;2023-02-15T04:08:54;102411.66;;;6.68;61.24
62600;BME280;48671;48.922;2.346;2023-02-15T04:11:38;102428.06;;;6.76;61.54
62600;BME280;48671;48.922;2.346;2023-02-15T04:14:05;102441.03;;;6.80;61.25
62600;BME280;48671;48.922;2.346;2023-02-15T04:16:51;102422.00;;;6.69;61.23
62600;BME280;48671;48.922;2.346;2023-02-15T04:19:16;102437.56;;;6.74;61.24
62600;BME280;48671;48.922;2.346;2023-02-15T04:22:00;102440.16;;;6.80;61.25
62600;BME280;48671;48.922;2.346;2023-02-15T04:24:44;102432.41;;;6.80;61.48
62600;BME280;48671;48.922;2.346;2023-02-15T04:27:28;102416.00;;;6.79;61.18
62600;BME280;48671;48.922;2.346;2023-02-15T04:29:53;102413.41;;;6.79;60.85
62600;BME280;48671;48.922;2.346;2023-02-15T04:32:19;102438.50;;;6.96;61.38
62600;BME280;48671;48.922;2.346;2023-02-15T04:34:44;102397.03;;;6.76;60.74
62600;BME280;48671;48.922;2.346;2023-02-15T04:37:09;102399.56;;;6.67;61.18
62600;BME280;48671;48.922;2.346;2023-02-15T04:39:35;102397.81;;;6.58;61.15
62600;BME280;48671;48.922;2.346;2023-02-15T04:42:00;102397.78;;;6.52;61.21
62600;BME280;48671;48.922;2.346;2023-02-15T04:44:26;102405.56;;;6.55;61.63
62600;BME280;48671;48.922;2.346;2023-02-15T04:46:51;102433.19;;;6.67;61.60
62600;BME280;48671;48.922;2.346;2023-02-15T04:49:17;102418.47;;;6.53;61.31
62600;BME280;48671;48.922;2.346;2023-02-15T04:51:42;102404.66;;;6.48;61.85
62600;BME280;48671;48.922;2.346;2023-02-15T04:54:07;102408.16;;;6.56;61.63
62600;BME280;48671;48.922;2.346;2023-02-15T04:56:33;102421.94;;;6.60;61.13
62600;BME280;48671;48.922;2.346;2023-02-15T04:59:00;102427.19;;;6.68;61.74
62600;BME280;48671;48.922;2.346;2023-02-15T05:01:25;102424.56;;;6.62;61.46
62600;BME280;48671;48.922;2.346;2023-02-15T05:03:50;102389.13;;;6.45;61.69
62600;BME280;48671;48.922;2.346;2023-02-15T05:06:16;102421.94;;;6.54;61.79
62600;BME280;48671;48.922;2.346;2023-02-15T05:08:41;102406.38;;;6.46;61.74
62600;BME280;48671;48.922;2.346;2023-02-15T05:11:07;102413.28;;;6.44;62.34
62600;BME280;48671;48.922;2.346;2023-02-15T05:13:35;102411.50;;;6.40;61.61
62600;BME280;48671;48.922;2.346;2023-02-15T05:16:03;102423.63;;;6.44;62.14
62600;BME280;48671;48.922;2.346;2023-02-15T05:18:30;102416.69;;;6.42;61.73
62600;BME280;48671;48.922;2.346;2023-02-15T05:20:56;102430.53;;;6.53;61.90
62600;BME280;48671;48.922;2.346;2023-02-15T05:23:22;102411.50;;;6.39;61.60
62600;BME280;48671;48.922;2.346;2023-02-15T05:25:53;102394.19;;;6.27;62.00
62600;BME280;48671;48.922;2.346;2023-02-15T05:28:40;102392.44;;;6.20;62.20
62600;BME280;48671;48.922;2.346;2023-02-15T05:31:17;102410.63;;;6.32;62.11
62600;BME280;48671;48.922;2.346;2023-02-15T05:33:43;102395.03;;;6.24;62.00
62600;BME280;48671;48.922;2.346;2023-02-15T05:36:09;102415.81;;;6.35;62.13
62600;BME280;48671;48.922;2.346;2023-02-15T05:38:44;102398.50;;;6.22;62.03
62600;BME280;48671;48.922;2.346;2023-02-15T05:41:12;102390.69;;;6.17;62.25
62600;BME280;48671;48.922;2.346;2023-02-15T05:43:38;102394.16;;;6.21;62.18
62600;BME280;48671;48.922;2.346;2023-02-15T05:46:04;102396.75;;;6.19;62.37
62600;BME280;48671;48.922;2.346;2023-02-15T05:48:37;102410.56;;;6.21;62.46
62600;BME280;48671;48.922;2.346;2023-02-15T05:51:14;102420.06;;;6.28;62.48
62600;BME280;48671;48.922;2.346;2023-02-15T05:53:46;102406.25;;;6.22;62.16
62600;BME280;48671;48.922;2.346;2023-02-15T05:56:14;102379.44;;;6.07;62.26
62600;BME280;48671;48.922;2.346;2023-02-15T05:58:41;102384.59;;;6.07;62.51
62600;BME280;48671;48.922;2.346;2023-02-15T06:01:17;102386.38;;;6.13;62.16
62600;BME280;48671;48.922;2.346;2023-02-15T06:03:46;102376.88;;;6.09;62.11
62600;BME280;48671;48.922;2.346;2023-02-15T06:06:15;102372.53;;;6.08;62.58
62600;BME280;48671;48.922;2.346;2023-02-15T06:08:41;102416.59;;;6.26;61.82
62600;BME280;48671;48.922;2.346;2023-02-15T06:11:06;102392.38;;;6.10;61.96
62600;BME280;48671;48.922;2.346;2023-02-15T06:13:35;102389.78;;;6.10;62.03
62600;BME280;48671;48.922;2.346;2023-02-15T06:16:01;102396.69;;;6.10;62.12
62600;BME280;48671;48.922;2.346;2023-02-15T06:18:27;102405.38;;;6.18;62.57
62600;BME280;48671;48.922;2.346;2023-02-15T06:21:06;102388.94;;;6.13;62.05
62600;BME280;48671;48.922;2.346;2023-02-15T06:23:34;102388.03;;;6.08;62.38
62600;BME280;48671;48.922;2.346;2023-02-15T06:26:00;102382.88;;;6.11;62.15
62600;BME280;48671;48.922;2.346;2023-02-15T06:28:25;102386.34;;;6.08;62.32
62600;BME280;48671;48.922;2.346;2023-02-15T06:30:51;102411.38;;;6.16;62.22
62600;BME280;48671;48.922;2.346;2023-02-15T06:33:17;102386.25;;;5.98;61.94
62600;BME280;48671;48.922;2.346;2023-02-15T06:35:42;102401.78;;;6.01;62.26
62600;BME280;48671;48.922;2.346;2023-02-15T06:38:08;102403.50;;;6.00;62.22
62600;BME280;48671;48.922;2.346;2023-02-15T06:40:33;102415.56;;;6.04;62.52
62600;BME280;48671;48.922;2.346;2023-02-15T06:42:58;102399.09;;;5.89;62.41
62600;BME280;48671;48.922;2.346;2023-02-15T06:45:24;102405.13;;;5.92;62.97
62600;BME280;48671;48.922;2.346;2023-02-15T06:47:49;102399.94;;;5.89;62.79
62600;BME280;48671;48.922;2.346;2023-02-15T06:50:15;102387.88;;;5.88;62.75
62600;BME280;48671;48.922;2.346;2023-02-15T06:52:40;102393.06;;;5.91;62.97
62600;BME280;48671;48.922;2.346;2023-02-15T06:55:06;102387.03;;;5.89;63.07
62600;BME280;48671;48.922;2.346;2023-02-15T06:57:31;102377.53;;;5.88;62.77
62600;BME280;48671;48.922;2.346;2023-02-15T06:59:58;102409.53;;;6.01;62.64
62600;BME280;48671;48.922;2.346;2023-02-15T07:02:23;102403.44;;;5.93;63.03
62600;BME280;48671;48.922;2.346;2023-02-15T07:04:49;102404.25;;;5.89;63.08
62600;BME280;48671;48.922;2.346;2023-02-15T07:07:14;102440.56;;;6.04;62.97
62600;BME280;48671;48.922;2.346;2023-02-15T07:09:39;102429.31;;;5.96;63.00
62600;BME280;48671;48.922;2.346;2023-02-15T07:12:06;102421.47;;;5.91;63.10
62600;BME280;48671;48.922;2.346;2023-02-15T07:14:50;102428.41;;;5.94;62.67
62600;BME280;48671;48.922;2.346;2023-02-15T07:17:15;102435.31;;;5.95;63.32
62600;BME280;48671;48.922;2.346;2023-02-15T07:19:41;102442.25;;;5.99;63.44
62600;BME280;48671;48.922;2.346;2023-02-15T07:22:06;102438.84;;;6.06;63.34
62600;BME280;48671;48.922;2.346;2023-02-15T07:24:31;102440.59;;;6.07;63.24
62600;BME280;48671;48.922;2.346;2023-02-15T07:26:57;102466.53;;;6.21;63.15
62600;BME280;48671;48.922;2.346;2023-02-15T07:29:23;102453.59;;;6.21;62.94
62600;BME280;48671;48.922;2.346;2023-02-15T07:31:49;102457.97;;;6.25;63.00
62600;BME280;48671;48.922;2.346;2023-02-15T07:34:14;102435.59;;;6.31;63.11
62600;BME280;48671;48.922;2.346;2023-02-15T07:36:41;102437.41;;;6.46;62.88
62600;BME280;48671;48.922;2.346;2023-02-15T07:39:08;102453.03;;;6.69;62.48
62600;BME280;48671;48.922;2.346;2023-02-15T07:41:37;102426.34;;;6.72;61.68
62600;BME280;48671;48.922;2.346;2023-02-15T07:44:02;102458.38;;;7.09;61.93
62600;BME280;48671;48.922;2.346;2023-02-15T07:46:28;102442.91;;;7.24;61.66
62600;BME280;48671;48.922;2.346;2023-02-15T07:48:53;102433.47;;;7.45;61.51
62600;BME280;48671;48.922;2.346;2023-02-15T07:51:19;102436.97;;;7.68;60.89
62600;BME280;48671;48.922;2.346;2023-02-15T07:53:44;102450.78;;;7.90;60.48
62600;BME280;48671;48.922;2.346;2023-02-15T07:56:11;102434.34;;;8.01;60.17
62600;BME280;48671;48.922;2.346;2023-02-15T07:58:38;102463.75;;;8.24;59.75
62600;BME280;48671;48.922;2.346;2023-02-15T08:01:27;102468.06;;;8.43;59.58
62600;BME280;48671;48.922;2.346;2023-02-15T08:03:53;102447.28;;;8.50;59.36
62600;BME280;48671;48.922;2.346;2023-02-15T08:06:21;102455.91;;;8.65;59.14
62600;BME280;48671;48.922;2.346;2023-02-15T08:08:46;102450.72;;;8.67;58.95
62600;BME280;48671;48.922;2.346;2023-02-15T08:14:13;102462.00;;;8.55;59.10
62600;BME280;48671;48.922;2.346;2023-02-15T08:16:41;102432.59;;;8.27;58.94
62600;BME280;48671;48.922;2.346;2023-02-15T08:19:18;102458.56;;;8.26;59.51
62600;BME280;48671;48.922;2.346;2023-02-15T08:21:50;102468.06;;;8.16;60.06
62600;BME280;48671;48.922;2.346;2023-02-15T08:24:18;102468.06;;;8.04;59.88
62600;BME280;48671;48.922;2.346;2023-02-15T08:26:44;102461.16;;;7.93;60.49
62600;BME280;48671;48.922;2.346;2023-02-15T08:29:13;102467.19;;;7.88;60.81
62600;BME280;48671;48.922;2.346;2023-02-15T08:31:39;102456.81;;;7.77;60.90
62600;BME280;48671;48.922;2.346;2023-02-15T08:34:07;102469.78;;;7.77;61.04
62600;BME280;48671;48.922;2.346;2023-02-15T08:36:33;102469.78;;;7.76;61.54
62600;BME280;48671;48.922;2.346;2023-02-15T08:39:00;102462.88;;;7.68;61.25
62600;BME280;48671;48.922;2.346;2023-02-15T08:41:31;102468.91;;;7.64;61.50
62600;BME280;48671;48.922;2.346;2023-02-15T08:43:59;102472.34;;;7.65;61.50
62600;BME280;48671;48.922;2.346;2023-02-15T08:46:27;102468.91;;;7.64;61.69
62600;BME280;48671;48.922;2.346;2023-02-15T08:48:53;102479.25;;;7.67;62.20
62600;BME280;48671;48.922;2.346;2023-02-15T08:51:23;102461.09;;;7.58;61.76
62600;BME280;48671;48.922;2.346;2023-02-15T08:53:52;102470.66;;;7.68;62.34
62600;BME280;48671;48.922;2.346;2023-02-15T08:56:24;102458.53;;;7.67;61.99
62600;BME280;48671;48.922;2.346;2023-02-15T08:58:50;102464.59;;;7.77;62.12
62600;BME280;48671;48.922;2.346;2023-02-15T09:01:21;102461.16;;;7.72;62.06
62600;BME280;48671;48.922;2.346;2023-02-15T09:03:48;102468.94;;;7.80;61.84
62600;BME280;48671;48.922;2.346;2023-02-15T09:06:15;102467.22;;;7.85;62.20
62600;BME280;48671;48.922;2.346;2023-02-15T09:08:41;102466.34;;;7.90;61.99
62600;BME280;48671;48.922;2.346;2023-02-15T09:11:11;102455.09;;;7.93;61.54
62600;BME280;48671;48.922;2.346;2023-02-15T09:13:37;102453.41;;;7.98;62.31
62600;BME280;48671;48.922;2.346;2023-02-15T09:16:05;102450.81;;;8.01;62.00
62600;BME280;48671;48.922;2.346;2023-02-15T09:18:34;102455.97;;;8.06;62.05
62600;BME280;48671;48.922;2.346;2023-02-15T09:21:27;102448.19;;;8.10;62.28
62600;BME280;48671;48.922;2.346;2023-02-15T09:23:56;102455.97;;;8.15;62.27
62600;BME280;48671;48.922;2.346;2023-02-15T09:26:24;102460.31;;;8.17;62.20
62600;BME280;48671;48.922;2.346;2023-02-15T09:28:54;102457.69;;;8.22;62.18
62600;BME280;48671;48.922;2.346;2023-02-15T09:31:29;102461.13;;;8.30;61.84
62600;BME280;48671;48.922;2.346;2023-02-15T09:33:55;102471.50;;;8.33;62.01
62600;BME280;48671;48.922;2.346;2023-02-15T09:36:23;102464.59;;;8.35;61.87
62600;BME280;48671;48.922;2.346;2023-02-15T09:39:00;102471.53;;;8.44;61.84
62600;BME280;48671;48.922;2.346;2023-02-15T09:47:22;102478.34;;;8.82;62.01
62600;BME280;48671;48.922;2.346;2023-02-15T09:58:24;102487.84;;;8.97;61.06
62600;BME280;48671;48.922;2.346;2023-02-15T10:00:58;102474.81;;;9.01;61.21
62600;BME280;48671;48.922;2.346;2023-02-15T10:08:54;102473.84;;;9.24;61.00
62600;BME280;48671;48.922;2.346;2023-02-15T10:11:42;102472.97;;;9.32;60.66
62600;BME280;48671;48.922;2.346;2023-02-15T10:14:46;102480.63;;;9.48;60.33
62600;BME280;48671;48.922;2.346;2023-02-15T10:31:26;102490.72;;;9.98;59.99
62600;BME280;48671;48.922;2.346;2023-02-15T10:34:16;102490.56;;;10.15;59.65
62600;BME280;48671;48.922;2.346;2023-02-15T10:43:04;102484.84;;;10.72;58.48
62600;BME280;48671;48.922;2.346;2023-02-15T10:50:58;102462.44;;;11.30;57.81
62600;BME280;48671;48.922;2.346;2023-02-15T11:04:40;102464.06;;;12.45;55.52
62600;BME280;48671;48.922;2.346;2023-02-15T11:10:00;102463.28;;;12.86;54.02
62600;BME280;48671;48.922;2.346;2023-02-15T11:12:29;102462.16;;;12.98;53.54
62600;BME280;48671;48.922;2.346;2023-02-15T11:15:18;102462.78;;;13.09;53.30
62600;BME280;48671;48.922;2.346;2023-02-15T11:23:20;102458.84;;;13.32;52.46
62600;BME280;48671;48.922;2.346;2023-02-15T11:26:02;102456.19;;;13.33;52.00
62600;BME280;48671;48.922;2.346;2023-02-15T11:28:49;102433.91;;;13.16;51.87
62600;BME280;48671;48.922;2.346;2023-02-15T11:31:22;102430.38;;;13.18;52.05
62600;BME280;48671;48.922;2.346;2023-02-15T11:33:55;102427.78;;;13.17;52.03
62600;BME280;48671;48.922;2.346;2023-02-15T11:36:26;102435.34;;;13.30;52.07
62600;BME280;48671;48.922;2.346;2023-02-15T11:38:59;102432.72;;;13.32;50.26
62600;BME280;48671;48.922;2.346;2023-02-15T11:41:34;102442.00;;;13.44;51.31
62600;BME280;48671;48.922;2.346;2023-02-15T11:44:22;102444.31;;;13.57;51.27
62600;BME280;48671;48.922;2.346;2023-02-15T11:46:49;102428.50;;;13.62;50.52
62600;BME280;48671;48.922;2.346;2023-02-15T11:49:34;102437.72;;;13.78;50.55
62600;BME280;48671;48.922;2.346;2023-02-15T11:52:02;102413.31;;;13.76;50.53
62600;BME280;48671;48.922;2.346;2023-02-15T11:54:35;102430.41;;;13.91;49.34
62600;BME280;48671;48.922;2.346;2023-02-15T11:59:55;102429.41;;;13.97;49.70
62600;BME280;48671;48.922;2.346;2023-02-15T12:02:25;102434.31;;;14.09;49.95
62600;BME280;48671;48.922;2.346;2023-02-15T12:05:03;102430.38;;;14.25;49.68
62600;BME280;48671;48.922;2.346;2023-02-15T12:07:35;102435.13;;;14.44;48.89
62600;BME280;48671;48.922;2.346;2023-02-15T12:10:28;102433.97;;;14.56;46.61
62600;BME280;48671;48.922;2.346;2023-02-15T12:13:15;102443.50;;;14.58;48.37
62600;BME280;48671;48.922;2.346;2023-02-15T12:15:46;102427.41;;;14.72;48.04
62600;BME280;48671;48.922;2.346;2023-02-15T12:21:03;102431.06;;;14.96;47.18
62600;BME280;48671;48.922;2.346;2023-02-15T12:23:31;102412.78;;;14.94;47.33
62600;BME280;48671;48.922;2.346;2023-02-15T12:25:58;102427.31;;;15.05;46.79
62600;BME280;48671;48.922;2.346;2023-02-15T12:28:28;102426.41;;;15.06;47.48
62600;BME280;48671;48.922;2.346;2023-02-15T12:30:57;102421.41;;;14.98;46.80
62600;BME280;48671;48.922;2.346;2023-02-15T12:33:39;102415.50;;;14.91;47.58
62600;BME280;48671;48.922;2.346;2023-02-15T12:36:21;102418.63;;;14.73;46.54
62600;BME280;48671;48.922;2.346;2023-02-15T12:41:37;102425.66;;;14.40;47.08
62600;BME280;48671;48.922;2.346;2023-02-15T12:44:15;102425.22;;;14.24;47.22
62600;BME280;48671;48.922;2.346;2023-02-15T12:46:41;102421.31;;;14.06;47.43
62600;BME280;48671;48.922;2.346;2023-02-15T12:51:54;102415.53;;;13.93;48.13
62600;BME280;48671;48.922;2.346;2023-02-15T12:54:36;102424.56;;;13.81;48.22
62600;BME280;48671;48.922;2.346;2023-02-15T12:57:24;102429.28;;;13.67;47.70
62600;BME280;48671;48.922;2.346;2023-02-15T12:59:54;102424.19;;;13.61;48.34
62600;BME280;48671;48.922;2.346;2023-02-15T13:02:44;102419.06;;;13.56;48.90
62600;BME280;48671;48.922;2.346;2023-02-15T13:05:30;102417.34;;;13.55;49.04
62600;BME280;48671;48.922;2.346;2023-02-15T13:08:16;102418.34;;;13.50;48.91
62600;BME280;48671;48.922;2.346;2023-02-15T13:13:22;102416.81;;;13.41;49.24
62600;BME280;48671;48.922;2.346;2023-02-15T13:15:55;102406.56;;;13.32;49.50
62600;BME280;48671;48.922;2.346;2023-02-15T13:18:37;102415.91;;;13.42;48.90
62600;BME280;48671;48.922;2.346;2023-02-15T13:21:10;102409.72;;;13.46;49.19
62600;BME280;48671;48.922;2.346;2023-02-15T13:23:37;102399.09;;;13.52;49.30
62600;BME280;48671;48.922;2.346;2023-02-15T13:26:11;102405.75;;;13.67;49.35
62600;BME280;48671;48.922;2.346;2023-02-15T13:28:45;102393.53;;;13.66;48.94
62600;BME280;48671;48.922;2.346;2023-02-15T13:31:15;102395.06;;;13.75;48.77
62600;BME280;48671;48.922;2.346;2023-02-15T13:33:45;102381.00;;;13.79;48.65
62600;BME280;48671;48.922;2.346;2023-02-15T13:36:29;102399.16;;;13.87;48.49
62600;BME280;48671;48.922;2.346;2023-02-15T13:39:20;102401.78;;;13.85;48.27
62600;BME280;48671;48.922;2.346;2023-02-15T13:42:17;102394.06;;;13.80;48.49
62600;BME280;48671;48.922;2.346;2023-02-15T13:45:10;102395.72;;;13.83;48.42
62600;BME280;48671;48.922;2.346;2023-02-15T13:53:17;102393.38;;;13.74;47.99
62600;BME280;48671;48.922;2.346;2023-02-15T13:58:44;102392.88;;;13.58;48.93
62600;BME280;48671;48.922;2.346;2023-02-15T14:01:31;102393.59;;;13.65;48.89
62600;BME280;48671;48.922;2.346;2023-02-15T14:07:10;102377.75;;;13.71;48.56
62600;BME280;48671;48.922;2.346;2023-02-15T14:09:45;102381.31;;;13.67;48.58
62600;BME280;48671;48.922;2.346;2023-02-15T14:12:35;102381.41;;;13.64;48.46
62600;BME280;48671;48.922;2.346;2023-02-15T14:15:35;102365.09;;;13.54;48.68
62600;BME280;48671;48.922;2.346;2023-02-15T14:21:30;102372.97;;;13.52;48.80
62600;BME280;48671;48.922;2.346;2023-02-15T14:26:35;102364.38;;;13.47;48.59
62600;BME280;48671;48.922;2.346;2023-02-15T14:29:20;102371.31;;;13.48;48.90
62600;BME280;48671;48.922;2.346;2023-02-15T14:31:54;102375.72;;;13.46;49.08
62600;BME280;48671;48.922;2.346;2023-02-15T14:34:27;102368.81;;;13.44;49.35
62600;BME280;48671;48.922;2.346;2023-02-15T14:36:56;102367.94;;;13.43;48.81
62600;BME280;48671;48.922;2.346;2023-02-15T14:42:33;102379.19;;;13.47;49.29
62600;BME280;48671;48.922;2.346;2023-02-15T14:47:44;102379.03;;;13.54;49.48
62600;BME280;48671;48.922;2.346;2023-02-15T14:53:15;102379.59;;;13.67;49.03
62600;BME280;48671;48.922;2.346;2023-02-15T14:55:41;102374.28;;;13.69;48.76
62600;BME280;48671;48.922;2.346;2023-02-15T14:58:10;102356.81;;;13.71;49.22
62600;BME280;48671;48.922;2.346;2023-02-15T15:00:39;102374.56;;;13.92;48.94
62600;BME280;48671;48.922;2.346;2023-02-15T15:03:20;102363.81;;;14.03;48.97
62600;BME280;48671;48.922;2.346;2023-02-15T15:05:51;102369.63;;;14.14;48.43
62600;BME280;48671;48.922;2.346;2023-02-15T15:08:33;102365.06;;;14.21;48.55
62600;BME280;48671;48.922;2.346;2023-02-15T15:19:01;102362.13;;;14.33;48.03
62600;BME280;48671;48.922;2.346;2023-02-15T15:43:35;102356.88;;;14.64;47.80
62600;BME280;48671;48.922;2.346;2023-02-15T15:49:15;102359.94;;;14.49;48.08
62600;BME280;48671;48.922;2.346;2023-02-15T15:51:44;102357.44;;;14.44;47.85
62600;BME280;48671;48.922;2.346;2023-02-15T15:54:21;102354.25;;;14.33;47.64
62600;BME280;48671;48.922;2.346;2023-02-15T15:59:45;102339.88;;;14.17;47.91
62600;BME280;48671;48.922;2.346;2023-02-15T16:02:14;102332.38;;;14.04;47.99
62600;BME280;48671;48.922;2.346;2023-02-15T16:04:41;102332.50;;;14.00;48.46
62600;BME280;48671;48.922;2.346;2023-02-15T16:07:32;102338.66;;;13.97;48.53
62600;BME280;48671;48.922;2.346;2023-02-15T16:10:06;102339.75;;;13.89;48.01
62600;BME280;48671;48.922;2.346;2023-02-15T16:12:37;102333.81;;;13.84;48.96
62600;BME280;48671;48.922;2.346;2023-02-15T16:15:13;102339.97;;;13.81;48.61
62600;BME280;48671;48.922;2.346;2023-02-15T16:17:41;102339.16;;;13.79;49.16
62600;BME280;48671;48.922;2.346;2023-02-15T16:20:16;102337.44;;;13.78;49.01
62600;BME280;48671;48.922;2.346;2023-02-15T16:22:45;102346.19;;;13.77;49.02
62600;BME280;48671;48.922;2.346;2023-02-15T16:27:53;102331.59;;;13.68;49.07
62600;BME280;48671;48.922;2.346;2023-02-15T16:30:23;102325.50;;;13.68;49.14
62600;BME280;48671;48.922;2.346;2023-02-15T16:32:52;102322.19;;;13.61;49.31
62600;BME280;48671;48.922;2.346;2023-02-15T16:35:19;102327.34;;;13.64;49.43
62600;BME280;48671;48.922;2.346;2023-02-15T16:37:46;102322.22;;;13.59;49.34
62600;BME280;48671;48.922;2.346;2023-02-15T16:42:59;102321.34;;;13.59;49.65
62600;BME280;48671;48.922;2.346;2023-02-15T16:45:30;102324.03;;;13.57;49.82
62600;BME280;48671;48.922;2.346;2023-02-15T16:47:57;102326.66;;;13.56;49.81
62600;BME280;48671;48.922;2.346;2023-02-15T16:50:33;102322.50;;;13.49;49.92
62600;BME280;48671;48.922;2.346;2023-02-15T16:53:01;102322.50;;;13.49;50.10
62600;BME280;48671;48.922;2.346;2023-02-15T16:55:40;102333.81;;;13.49;50.04
62600;BME280;48671;48.922;2.346;2023-02-15T16:58:11;102329.63;;;13.42;50.03
62600;BME280;48671;48.922;2.346;2023-02-15T17:00:39;102343.56;;;13.43;50.49
62600;BME280;48671;48.922;2.346;2023-02-15T17:11:20;102361.16;;;13.36;50.95
62600;BME280;48671;48.922;2.346;2023-02-15T17:16:53;102369.13;;;13.31;51.25
62600;BME280;48671;48.922;2.346;2023-02-15T17:19:23;102365.66;;;13.31;51.14
62600;BME280;48671;48.922;2.346;2023-02-15T17:21:55;102364.03;;;13.25;51.43
62600;BME280;48671;48.922;2.346;2023-02-15T17:26:57;102371.00;;;13.23;51.46
62600;BME280;48671;48.922;2.346;2023-02-15T17:29:32;102365.84;;;13.20;51.59